Time;durP1;ratioP1;P1;durP2;ratioP2;P2;SDS_P1;SDS_P2;PMS_P1;PMS_P2;Temp;Humidity;BMP_temperature;BMP_pressure;BME280_temperature;BME280_humidity;BME280_pressure;Samples;Min_cycle;Max_cycle;Signal;HPM_P1;HPM_P2
2022/02/08 00:02:02;;;;;;;12.88;7.05;;;8.00;99.90;;;;;;5049300;28;20582;-61
2022/02/08 00:04:29;;;;;;;31.13;14.15;;;8.00;99.90;;;;;;5051811;28;20221;-61
2022/02/08 00:06:56;;;;;;;10.85;7.38;;;8.00;99.90;;;;;;5051713;28;20580;-61
2022/02/08 00:09:25;;;;;;;8.38;3.70;;;8.00;99.90;;;;;;5055893;28;20237;-61
2022/02/08 00:11:51;;;;;;;10.77;3.70;;;7.90;99.90;;;;;;5059073;28;20216;-61
2022/02/08 00:14:19;;;;;;;13.73;6.00;;;7.90;99.90;;;;;;5057739;28;20233;-62
2022/02/08 00:16:47;;;;;;;15.38;3.97;;;8.00;99.90;;;;;;5055304;28;20312;-62
2022/02/08 00:19:14;;;;;;;15.55;8.23;;;8.00;99.90;;;;;;5055489;28;20217;-62
2022/02/08 00:21:41;;;;;;;16.70;7.53;;;7.90;99.90;;;;;;5055129;28;20229;-62
2022/02/08 00:24:08;;;;;;;13.85;4.95;;;7.90;99.90;;;;;;5055402;28;20232;-62
2022/02/08 00:26:38;;;;;;;13.68;6.55;;;8.00;99.90;;;;;;5055359;28;20249;-62
2022/02/08 00:29:06;;;;;;;9.57;3.22;;;8.00;99.90;;;;;;5055361;28;20223;-62
2022/02/08 00:31:32;;;;;;;15.02;3.15;;;8.00;99.90;;;;;;5055457;28;20225;-62
2022/02/08 00:34:01;;;;;;;8.85;2.92;;;8.00;99.90;;;;;;5047741;28;20236;-62
2022/02/08 00:36:28;;;;;;;6.28;3.10;;;7.90;99.90;;;;;;5055334;28;20698;-62
2022/02/08 00:38:55;;;;;;;17.67;7.60;;;7.90;99.90;;;;;;5054751;28;20225;-62
2022/02/08 00:41:24;;;;;;;12.93;3.47;;;7.90;99.90;;;;;;5055105;28;20244;-62
2022/02/08 00:43:57;;;;;;;9.68;2.75;;;7.90;99.90;;;;;;5049842;28;20226;-62
2022/02/08 00:46:31;;;;;;;9.27;4.97;;;7.90;99.90;;;;;;5048579;28;20379;-62
2022/02/08 00:49:03;;;;;;;9.25;2.75;;;8.00;99.90;;;;;;5042605;28;20290;-62
2022/02/08 00:51:40;;;;;;;8.40;3.78;;;8.00;99.90;;;;;;5055069;28;20245;-62
2022/02/08 00:54:07;;;;;;;8.25;3.60;;;7.90;99.90;;;;;;5054785;28;20235;-62
2022/02/08 00:56:34;;;;;;;14.13;5.10;;;8.00;99.90;;;;;;5054994;28;20320;-62
2022/02/08 00:59:01;;;;;;;11.27;4.20;;;8.00;99.90;;;;;;5054560;28;20785;-62
2022/02/08 01:01:30;;;;;;;10.80;3.58;;;8.00;99.90;;;;;;5054940;28;20639;-62
2022/02/08 01:03:57;;;;;;;9.00;2.92;;;8.00;99.90;;;;;;5054660;28;20225;-62
2022/02/08 01:06:23;;;;;;;5.93;2.50;;;8.00;99.90;;;;;;5054828;28;20225;-62
2022/02/08 01:09:03;;;;;;;13.95;4.80;;;8.00;99.90;;;;;;5054635;28;20229;-62
2022/02/08 01:11:30;;;;;;;7.55;2.70;;;8.10;99.90;;;;;;5049752;28;20252;-62
2022/02/08 01:13:57;;;;;;;3.03;2.65;;;8.00;99.90;;;;;;5059667;28;20226;-62
2022/02/08 01:16:26;;;;;;;9.73;3.03;;;8.10;99.90;;;;;;5054708;28;20302;-62
2022/02/08 01:18:56;;;;;;;9.77;4.03;;;8.10;99.90;;;;;;5053366;28;20229;-61
2022/02/08 01:21:23;;;;;;;9.93;3.53;;;8.10;99.90;;;;;;5054759;28;20237;-62
2022/02/08 01:23:52;;;;;;;10.73;4.00;;;8.20;99.90;;;;;;5054144;28;20248;-62
2022/02/08 01:26:21;;;;;;;5.05;2.75;;;8.10;99.90;;;;;;5054437;28;20757;-62
2022/02/08 01:28:53;;;;;;;11.50;3.95;;;8.20;99.90;;;;;;5054057;28;20623;-61
2022/02/08 01:31:22;;;;;;;5.93;2.75;;;8.20;99.90;;;;;;5054340;28;20763;-62
2022/02/08 01:36:44;;;;;;;9.60;4.43;;;8.10;99.90;;;;;;5053885;28;20252;-62
2022/02/08 01:39:19;;;;;;;8.45;2.42;;;8.10;99.90;;;;;;5048045;28;21268;-63
2022/02/08 01:42:12;;;;;;;12.93;4.25;;;8.20;99.90;;;;;;5052981;28;20236;-62
2022/02/08 01:44:44;;;;;;;11.43;4.18;;;8.10;99.90;;;;;;5052276;28;20368;-62
2022/02/08 01:47:25;;;;;;;9.13;3.38;;;8.10;99.90;;;;;;5054000;28;20628;-62
2022/02/08 01:50:07;;;;;;;12.73;4.60;;;8.10;99.90;;;;;;5053792;28;20221;-62
2022/02/08 01:52:33;;;;;;;6.32;2.58;;;8.10;99.90;;;;;;5053590;28;20290;-62
2022/02/08 01:55:02;;;;;;;9.20;3.22;;;8.00;99.90;;;;;;5053846;28;20675;-61
2022/02/08 01:57:28;;;;;;;7.40;3.58;;;8.00;99.90;;;;;;5053797;28;20217;-61
2022/02/08 01:59:56;;;;;;;5.65;2.60;;;8.00;99.90;;;;;;5053863;28;20267;-62
2022/02/08 02:02:22;;;;;;;7.40;2.03;;;7.90;99.90;;;;;;5053078;28;20235;-62
2022/02/08 02:04:49;;;;;;;10.85;3.08;;;7.90;99.90;;;;;;5051439;28;20275;-62
2022/02/08 02:07:17;;;;;;;8.07;2.60;;;7.90;99.90;;;;;;5031864;28;20272;-61
2022/02/08 02:09:46;;;;;;;10.23;3.10;;;7.90;99.90;;;;;;5032720;28;20771;-61
2022/02/08 02:12:15;;;;;;;6.90;2.60;;;7.90;99.90;;;;;;5039461;28;20228;-62
2022/02/08 02:14:42;;;;;;;7.78;2.92;;;7.80;99.90;;;;;;5052362;28;20263;-62
2022/02/08 02:17:10;;;;;;;8.55;3.30;;;7.80;99.90;;;;;;5052771;28;20217;-62
2022/02/08 02:19:39;;;;;;;9.50;3.00;;;7.80;99.90;;;;;;5052023;28;20226;-61
2022/02/08 02:22:07;;;;;;;9.77;3.30;;;7.70;99.90;;;;;;5052634;28;20704;-62
2022/02/08 02:24:35;;;;;;;6.72;3.20;;;7.70;99.90;;;;;;5052299;28;20892;-62
2022/02/08 02:27:04;;;;;;;9.52;3.30;;;7.70;99.90;;;;;;5052523;28;20308;-62
2022/02/08 02:29:31;;;;;;;8.20;2.97;;;7.70;99.90;;;;;;5052397;28;20322;-62
2022/02/08 02:31:59;;;;;;;10.60;2.92;;;7.60;99.90;;;;;;5051603;28;20540;-62
2022/02/08 02:34:26;;;;;;;8.50;3.50;;;7.60;99.90;;;;;;5036249;28;20275;-63
2022/02/08 02:36:55;;;;;;;9.02;3.10;;;7.70;99.90;;;;;;5034811;28;20672;-63
2022/02/08 02:39:24;;;;;;;9.95;3.50;;;7.60;99.90;;;;;;5053243;28;20244;-61
2022/02/08 02:41:53;;;;;;;15.88;5.18;;;7.70;99.90;;;;;;5052673;28;20271;-61
2022/02/08 02:44:23;;;;;;;4.95;3.13;;;7.70;99.90;;;;;;5052577;28;20286;-62
2022/02/08 02:46:51;;;;;;;9.10;3.55;;;7.70;99.90;;;;;;5052845;28;20264;-62
2022/02/08 02:49:18;;;;;;;9.13;4.28;;;7.70;99.90;;;;;;5053130;28;20229;-62
2022/02/08 02:51:44;;;;;;;10.32;2.75;;;7.70;99.90;;;;;;5052660;28;20534;-62
2022/02/08 02:54:19;;;;;;;10.15;3.85;;;7.80;99.90;;;;;;5052960;28;20691;-62
2022/02/08 02:56:48;;;;;;;6.13;2.63;;;7.80;99.90;;;;;;5052886;28;20220;-62
2022/02/08 02:59:19;;;;;;;14.90;3.83;;;7.80;99.90;;;;;;5053269;28;20229;-62
2022/02/08 03:02:17;;;;;;;6.97;3.10;;;7.80;99.90;;;;;;5052742;28;20233;-62
2022/02/08 03:04:52;;;;;;;7.35;2.85;;;7.80;99.90;;;;;;5052349;28;20229;-62
2022/02/08 03:18:34;;;;;;;8.07;3.55;;;7.90;99.90;;;;;;5073450;28;20369;-62
2022/02/08 03:21:01;;;;;;;6.10;2.50;;;7.90;99.90;;;;;;5071441;28;20248;-62
2022/02/08 03:23:28;;;;;;;8.88;2.85;;;7.90;99.90;;;;;;5052890;28;20221;-62
2022/02/08 03:25:55;;;;;;;5.50;2.45;;;7.90;99.90;;;;;;5052940;28;20225;-62
2022/02/08 03:28:22;;;;;;;10.75;2.85;;;7.90;99.90;;;;;;5052095;28;20278;-62
2022/02/08 03:30:50;;;;;;;8.45;3.08;;;8.00;99.90;;;;;;5052451;28;20304;-62
2022/02/08 03:33:19;;;;;;;6.95;3.03;;;7.90;99.90;;;;;;5052136;28;20414;-62
2022/02/08 03:35:45;;;;;;;11.25;3.80;;;7.80;99.90;;;;;;5052532;28;20323;-61
2022/02/08 03:38:16;;;;;;;7.72;3.30;;;7.80;99.90;;;;;;5052057;28;20300;-62
2022/02/08 03:40:47;;;;;;;10.45;3.50;;;7.80;99.90;;;;;;5051255;28;20240;-62
2022/02/08 03:43:25;;;;;;;12.02;3.20;;;7.80;99.90;;;;;;5054746;28;20304;-61
2022/02/08 03:45:57;;;;;;;7.00;2.95;;;7.80;99.90;;;;;;5056733;28;20558;-62
2022/02/08 03:48:26;;;;;;;8.20;2.95;;;7.80;99.90;;;;;;5056390;28;20249;-62
2022/02/08 03:50:54;;;;;;;8.85;3.60;;;7.80;99.90;;;;;;5056714;28;20228;-61
2022/02/08 03:53:23;;;;;;;7.85;3.92;;;7.80;99.90;;;;;;5056255;28;20349;-62
2022/02/08 03:55:50;;;;;;;8.43;3.20;;;7.80;99.90;;;;;;5056661;28;20235;-62
2022/02/08 03:58:18;;;;;;;6.22;3.28;;;7.80;99.90;;;;;;5056210;28;20225;-62
2022/02/08 04:00:58;;;;;;;9.05;3.08;;;7.80;99.90;;;;;;5056556;28;20232;-61
2022/02/08 04:03:29;;;;;;;9.10;3.25;;;7.90;99.90;;;;;;5056064;28;20221;-62
2022/02/08 04:05:58;;;;;;;7.63;3.33;;;7.90;99.90;;;;;;5056588;28;20217;-61
2022/02/08 04:08:24;;;;;;;10.85;3.13;;;7.90;99.90;;;;;;5056043;28;20263;-62
2022/02/08 04:10:55;;;;;;;3.47;2.80;;;7.90;99.90;;;;;;5056311;28;20253;-62
2022/02/08 04:13:25;;;;;;;8.63;2.78;;;7.90;99.90;;;;;;5055896;28;20319;-62
2022/02/08 04:16:08;;;;;;;11.70;2.72;;;7.90;99.90;;;;;;5056246;28;20221;-62
2022/02/08 04:18:57;;;;;;;6.82;2.70;;;7.90;99.90;;;;;;5056007;28;21079;-62
2022/02/08 04:32:36;;;;;;;6.28;2.63;;;8.00;99.90;;;;;;5055715;28;20228;-62
2022/02/08 04:35:34;;;;;;;5.75;3.17;;;8.00;99.90;;;;;;5055484;28;20683;-61
2022/02/08 04:38:11;;;;;;;5.70;2.53;;;8.00;99.90;;;;;;5055322;28;20221;-62
2022/02/08 04:40:50;;;;;;;7.25;2.50;;;8.00;99.90;;;;;;5055650;28;20302;-61
2022/02/08 04:43:27;;;;;;;4.30;2.33;;;7.90;99.90;;;;;;5055396;28;20232;-62
2022/02/08 04:46:01;;;;;;;6.47;2.80;;;7.90;99.90;;;;;;5055605;28;20213;-61
2022/02/08 04:48:41;;;;;;;5.60;2.15;;;8.00;99.90;;;;;;5055398;28;20902;-61
2022/02/08 04:51:18;;;;;;;5.32;2.63;;;8.00;99.80;;;;;;5055226;28;20231;-61
2022/02/08 04:53:52;;;;;;;5.15;2.58;;;8.10;99.80;;;;;;5054622;28;20350;-61
2022/02/08 04:56:33;;;;;;;5.47;3.13;;;8.00;99.70;;;;;;5055192;28;20233;-62
2022/02/08 04:59:14;;;;;;;5.60;2.33;;;8.00;99.50;;;;;;5055487;28;20282;-62
2022/02/08 05:01:56;;;;;;;5.43;3.45;;;8.00;99.40;;;;;;5055857;28;20290;-62
2022/02/08 05:35:03;;;;;;;6.80;3.70;;;8.30;99.70;;;;;;5034597;28;20225;-63
2022/02/08 05:40:38;;;;;;;9.00;3.45;;;8.40;99.50;;;;;;5034268;28;20291;-62
2022/02/08 05:40:51;;;;;;;7.97;5.07;;;8.30;99.30;;;;;;5048903;28;20229;-63
2022/02/08 05:43:23;;;;;;;6.55;3.88;;;8.40;99.30;;;;;;5054071;28;20303;-62
2022/02/08 05:46:15;;;;;;;18.85;10.40;;;8.40;99.30;;;;;;5054400;28;20217;-63
2022/02/08 05:48:47;;;;;;;12.50;7.95;;;8.40;99.30;;;;;;5070617;28;20910;-63
2022/02/08 05:51:17;;;;;;;15.45;7.35;;;8.50;99.30;;;;;;5054376;28;20688;-62
2022/02/08 05:53:46;;;;;;;10.50;4.72;;;8.50;99.40;;;;;;5054259;28;20213;-62
2022/02/08 05:56:15;;;;;;;8.57;5.72;;;8.50;99.40;;;;;;5054393;28;20251;-63
2022/02/08 05:58:45;;;;;;;8.18;5.70;;;8.50;99.70;;;;;;5053876;28;20221;-62
2022/02/08 06:01:14;;;;;;;10.50;4.80;;;8.50;99.90;;;;;;5054149;28;20691;-63
2022/02/08 06:03:40;;;;;;;10.07;4.80;;;8.50;99.90;;;;;;5053642;28;20259;-63
2022/02/08 06:06:07;;;;;;;7.88;5.80;;;8.60;99.90;;;;;;5053996;28;20217;-63
2022/02/08 06:08:34;;;;;;;11.50;4.95;;;8.60;99.90;;;;;;5053604;28;20225;-63
2022/02/08 06:11:04;;;;;;;12.00;5.40;;;8.50;99.90;;;;;;5054343;28;20563;-63
2022/02/08 06:13:32;;;;;;;10.43;5.55;;;8.60;99.90;;;;;;5053422;28;20255;-62
2022/02/08 06:16:02;;;;;;;9.30;6.32;;;8.60;99.90;;;;;;5054147;28;20544;-62
2022/02/08 06:18:30;;;;;;;12.18;5.88;;;8.60;99.90;;;;;;5053597;28;20225;-62
2022/02/08 06:20:57;;;;;;;8.63;5.43;;;8.60;99.90;;;;;;5053951;28;20233;-62
2022/02/08 06:23:23;;;;;;;11.25;5.32;;;8.60;99.90;;;;;;5053552;28;20221;-63
2022/02/08 06:25:50;;;;;;;10.18;5.60;;;8.50;99.90;;;;;;5053838;28;20232;-62
2022/02/08 06:28:18;;;;;;;8.98;5.85;;;8.50;99.90;;;;;;5053700;28;20244;-63
2022/02/08 06:30:47;;;;;;;9.88;5.95;;;8.50;99.90;;;;;;5053260;28;20236;-62
2022/02/08 06:33:15;;;;;;;12.48;7.45;;;8.50;99.90;;;;;;5053799;28;20225;-62
2022/02/08 06:35:41;;;;;;;9.18;6.57;;;8.50;99.90;;;;;;5053274;28;20239;-63
2022/02/08 06:38:11;;;;;;;16.30;8.75;;;8.50;99.90;;;;;;5053476;28;20223;-62
2022/02/08 06:40:40;;;;;;;9.27;6.65;;;8.50;99.90;;;;;;5038172;28;20320;-62
2022/02/08 06:43:07;;;;;;;16.08;7.15;;;8.50;99.90;;;;;;5033591;28;20300;-62
2022/02/08 06:45:35;;;;;;;12.48;5.70;;;8.50;99.90;;;;;;5035296;28;20232;-62
2022/02/08 06:48:05;;;;;;;9.73;5.40;;;8.50;99.90;;;;;;5053306;28;20244;-63
2022/02/08 06:50:32;;;;;;;14.50;8.98;;;8.50;99.90;;;;;;5052887;28;20260;-62
2022/02/08 06:52:59;;;;;;;13.25;5.80;;;8.50;99.90;;;;;;5053170;28;20219;-61
2022/02/08 06:55:28;;;;;;;12.15;6.45;;;8.60;99.90;;;;;;5052876;28;20221;-62
2022/02/08 06:58:01;;;;;;;7.70;5.82;;;8.60;99.90;;;;;;5053406;28;20304;-62
2022/02/08 07:00:32;;;;;;;8.60;6.32;;;8.70;99.90;;;;;;5052773;28;20229;-62
2022/02/08 07:03:07;;;;;;;13.02;7.47;;;8.60;99.90;;;;;;5053140;28;20290;-63
2022/02/08 07:05:35;;;;;;;13.10;5.75;;;8.60;99.90;;;;;;5052823;28;20257;-62
2022/02/08 07:08:02;;;;;;;8.13;5.15;;;8.60;99.90;;;;;;5053286;28;20225;-63
2022/02/08 07:10:31;;;;;;;10.18;5.65;;;8.60;99.90;;;;;;5052584;28;20585;-63
2022/02/08 07:12:58;;;;;;;11.10;6.50;;;8.60;99.90;;;;;;5052819;28;20225;-63
2022/02/08 07:15:25;;;;;;;11.43;8.15;;;8.60;99.90;;;;;;5052920;28;20225;-63
2022/02/08 07:17:52;;;;;;;11.55;7.65;;;8.60;99.90;;;;;;5052095;28;20213;-62
2022/02/08 07:20:19;;;;;;;17.15;8.07;;;8.60;99.90;;;;;;5052886;28;20575;-63
2022/02/08 07:22:48;;;;;;;20.38;9.30;;;8.60;99.90;;;;;;5052443;28;20225;-63
2022/02/08 07:25:15;;;;;;;13.82;8.85;;;8.50;99.90;;;;;;5052848;28;20687;-63
2022/02/08 07:27:42;;;;;;;48.25;31.90;;;8.60;99.90;;;;;;5052508;28;20300;-63
2022/02/08 07:30:11;;;;;;;26.42;15.65;;;8.50;99.90;;;;;;5052707;28;20228;-63
2022/02/08 07:32:39;;;;;;;18.75;9.50;;;8.50;99.90;;;;;;5052416;28;20235;-63
2022/02/08 07:35:21;;;;;;;11.93;8.93;;;8.50;99.90;;;;;;5052825;28;20228;-63
2022/02/08 07:37:52;;;;;;;17.20;9.25;;;8.40;99.90;;;;;;5052430;28;20231;-63
2022/02/08 07:40:40;;;;;;;11.30;7.18;;;8.50;99.90;;;;;;5052702;28;20230;-63
2022/02/08 07:43:07;;;;;;;12.35;8.80;;;8.50;99.90;;;;;;5053034;28;20298;-63
2022/02/08 07:45:34;;;;;;;17.73;13.88;;;8.50;99.90;;;;;;5051567;28;20244;-63
2022/02/08 07:48:00;;;;;;;16.40;10.52;;;8.50;99.90;;;;;;5052746;28;20545;-64
2022/02/08 07:50:28;;;;;;;15.60;10.20;;;8.50;99.90;;;;;;5050803;28;20225;-61
2022/02/08 07:52:56;;;;;;;12.73;9.85;;;8.40;99.90;;;;;;5052281;28;20296;-63
2022/02/08 07:55:24;;;;;;;9.30;7.72;;;8.50;99.90;;;;;;5051921;28;20224;-63
2022/02/08 07:57:52;;;;;;;8.43;6.45;;;8.50;99.90;;;;;;5052206;28;20548;-63
2022/02/08 08:00:19;;;;;;;16.42;7.43;;;8.50;99.90;;;;;;5052099;28;20225;-63
2022/02/08 08:02:46;;;;;;;8.80;6.22;;;8.50;99.90;;;;;;5052531;28;20256;-64
2022/02/08 08:05:13;;;;;;;11.57;5.90;;;8.50;99.90;;;;;;5052104;28;20225;-64
2022/02/08 08:07:41;;;;;;;8.55;6.20;;;8.50;99.90;;;;;;5052295;28;20287;-63
2022/02/08 08:10:11;;;;;;;15.77;9.90;;;8.50;99.90;;;;;;5052153;28;20302;-62
2022/02/08 08:12:45;;;;;;;13.40;9.95;;;8.50;99.90;;;;;;5052026;28;20961;-62
2022/02/08 08:15:25;;;;;;;15.82;9.77;;;8.50;99.90;;;;;;5052494;28;20225;-63
2022/02/08 08:17:57;;;;;;;16.80;10.77;;;8.50;99.90;;;;;;5052877;28;20220;-64
2022/02/08 08:20:24;;;;;;;13.27;9.55;;;8.50;99.90;;;;;;5068578;28;20213;-63
2022/02/08 08:22:51;;;;;;;14.50;9.57;;;8.60;99.90;;;;;;5052319;28;20231;-63
2022/02/08 08:25:19;;;;;;;11.32;7.00;;;8.50;99.90;;;;;;5051902;28;20236;-62
2022/02/08 08:27:46;;;;;;;11.45;9.05;;;8.50;99.90;;;;;;5052245;28;20236;-62
2022/02/08 08:30:14;;;;;;;6.68;6.05;;;8.40;99.90;;;;;;5055357;28;20243;-63
2022/02/08 08:32:42;;;;;;;8.73;6.68;;;8.50;99.90;;;;;;5055936;28;20221;-63
2022/02/08 08:35:11;;;;;;;9.25;6.18;;;8.50;99.90;;;;;;5055559;28;20228;-63
2022/02/08 08:37:41;;;;;;;7.72;7.03;;;8.60;99.90;;;;;;5055885;28;20300;-63
2022/02/08 08:40:19;;;;;;;7.18;5.93;;;8.60;99.90;;;;;;5055409;28;20475;-63
2022/02/08 08:42:58;;;;;;;13.38;8.23;;;8.70;99.90;;;;;;5055791;28;20217;-63
2022/02/08 08:51:01;;;;;;;8.70;7.80;;;8.70;99.90;;;;;;5055529;28;20235;-64
2022/02/08 08:53:28;;;;;;;7.28;6.32;;;8.70;99.90;;;;;;5055324;28;20221;-63
2022/02/08 08:55:56;;;;;;;9.10;7.40;;;8.80;99.90;;;;;;5055567;28;20225;-63
2022/02/08 08:58:25;;;;;;;10.38;7.95;;;8.80;99.90;;;;;;5055222;28;20239;-63
2022/02/08 09:00:52;;;;;;;11.38;7.68;;;8.80;99.90;;;;;;5055407;28;20229;-63
2022/02/08 09:03:23;;;;;;;10.00;6.85;;;8.80;99.90;;;;;;5055038;28;20540;-63
2022/02/08 09:05:50;;;;;;;9.88;7.55;;;8.80;99.90;;;;;;5055336;28;20282;-63
2022/02/08 09:08:17;;;;;;;13.07;8.57;;;8.90;99.90;;;;;;5054800;28;20221;-63
2022/02/08 09:10:50;;;;;;;12.38;8.77;;;9.00;99.90;;;;;;5055168;28;20225;-63
2022/02/08 09:13:26;;;;;;;13.88;9.43;;;9.10;99.90;;;;;;5054729;28;20687;-63
2022/02/08 09:16:07;;;;;;;10.00;8.82;;;9.10;99.90;;;;;;5055115;28;20261;-64
2022/02/08 09:29:35;;;;;;;7.57;6.45;;;9.30;99.90;;;;;;5054559;28;20239;-64
2022/02/08 09:32:13;;;;;;;8.55;7.65;;;9.30;99.90;;;;;;5054711;28;20466;-63
2022/02/08 09:34:43;;;;;;;13.52;9.57;;;9.40;99.90;;;;;;5054645;28;20565;-63
2022/02/08 09:37:11;;;;;;;11.63;10.02;;;9.50;99.90;;;;;;5054691;28;20307;-64
2022/02/08 09:39:38;;;;;;;10.70;8.10;;;9.50;99.90;;;;;;5053922;28;20275;-64
2022/02/08 09:42:06;;;;;;;11.00;7.57;;;9.50;99.90;;;;;;5054419;28;20563;-63
2022/02/08 09:44:34;;;;;;;17.48;8.60;;;9.60;99.90;;;;;;5054329;28;20318;-63
2022/02/08 09:47:07;;;;;;;7.53;6.72;;;9.50;99.90;;;;;;5054555;28;20679;-63
2022/02/08 09:49:39;;;;;;;12.07;10.82;;;9.50;99.90;;;;;;5054101;28;20225;-63
2022/02/08 09:52:06;;;;;;;8.80;7.20;;;9.50;99.90;;;;;;5054538;28;20231;-63
2022/02/08 09:54:33;;;;;;;10.00;7.47;;;9.60;99.90;;;;;;5053955;28;20235;-63
2022/02/08 09:57:00;;;;;;;8.45;7.55;;;9.60;99.90;;;;;;5054429;28;20217;-63
2022/02/08 09:59:27;;;;;;;9.30;7.07;;;9.60;99.90;;;;;;5053832;28;20675;-63
2022/02/08 10:01:56;;;;;;;10.40;7.40;;;9.60;99.90;;;;;;5054216;28;20221;-63
2022/02/08 10:04:25;;;;;;;8.18;7.30;;;9.60;99.90;;;;;;5053761;28;20725;-63
2022/02/08 10:06:52;;;;;;;11.73;7.70;;;9.70;99.90;;;;;;5054048;28;20226;-63
2022/02/08 10:09:30;;;;;;;10.48;7.85;;;9.70;99.90;;;;;;5053852;28;20225;-62
2022/02/08 10:11:58;;;;;;;9.18;7.65;;;9.70;99.90;;;;;;5054082;28;20247;-64
2022/02/08 10:14:37;;;;;;;10.35;8.48;;;9.70;99.90;;;;;;5053531;28;20632;-63
2022/02/08 10:20:40;;;;;;;14.50;8.68;;;9.80;99.90;;;;;;5053659;28;20223;-64
2022/02/08 10:22:52;;;;;;;8.75;7.80;;;9.70;99.90;;;;;;5053362;28;20290;-64
2022/02/08 10:25:26;;;;;;;10.20;7.97;;;9.70;99.90;;;;;;5053939;28;20573;-64
2022/02/08 10:28:02;;;;;;;11.18;7.93;;;9.70;99.90;;;;;;5053664;28;21311;-64
2022/02/08 10:38:45;;;;;;;6.72;5.60;;;9.90;99.90;;;;;;5053291;28;20382;-62
2022/02/08 10:41:13;;;;;;;7.65;6.60;;;9.90;99.90;;;;;;5053616;28;20278;-63
2022/02/08 10:43:42;;;;;;;7.95;7.15;;;10.00;99.90;;;;;;5053010;28;20229;-64
2022/02/08 10:46:19;;;;;;;8.00;5.50;;;10.00;99.90;;;;;;5052224;28;20603;-63
2022/02/08 10:48:46;;;;;;;7.88;6.63;;;10.10;99.90;;;;;;5051125;28;20298;-63
2022/02/08 10:51:16;;;;;;;10.32;7.88;;;10.10;99.90;;;;;;5036782;28;20247;-64
2022/02/08 10:53:54;;;;;;;8.93;7.03;;;10.00;99.90;;;;;;5030497;28;20225;-62
2022/02/08 10:56:25;;;;;;;11.48;10.27;;;10.00;99.90;;;;;;5031407;28;20221;-64
2022/02/08 10:59:04;;;;;;;11.10;9.32;;;10.10;99.90;;;;;;5031036;28;20229;-62
2022/02/08 11:01:33;;;;;;;12.25;9.35;;;10.10;99.90;;;;;;5033085;28;20236;-63
2022/02/08 11:04:06;;;;;;;12.60;9.73;;;10.10;99.90;;;;;;5033034;28;20707;-62
2022/02/08 11:06:46;;;;;;;12.48;11.18;;;10.10;99.90;;;;;;5033294;28;20232;-63
2022/02/08 11:09:22;;;;;;;10.60;9.50;;;10.20;99.90;;;;;;5053395;28;20232;-62
2022/02/08 11:14:57;;;;;;;8.98;6.95;;;10.20;99.90;;;;;;5050411;28;20294;-62
2022/02/08 11:18:03;;;;;;;9.85;8.10;;;10.30;99.90;;;;;;5052918;28;20229;-63
2022/02/08 11:20:34;;;;;;;9.93;8.93;;;10.30;99.90;;;;;;5052795;28;20248;-64
2022/02/08 11:23:13;;;;;;;11.82;10.52;;;10.30;99.90;;;;;;5052960;28;20217;-63
2022/02/08 11:25:43;;;;;;;13.68;10.90;;;10.30;99.90;;;;;;5053268;28;20221;-62
2022/02/08 11:28:17;;;;;;;11.15;9.95;;;10.40;99.90;;;;;;5052650;28;20217;-63
2022/02/08 11:30:58;;;;;;;12.98;9.73;;;10.40;99.90;;;;;;5052763;28;20255;-64
2022/02/08 11:39:45;;;;;;;13.98;12.48;;;10.40;99.90;;;;;;5052766;28;20231;-62
2022/02/08 11:48:12;;;;;;;12.25;10.95;;;10.40;99.90;;;;;;5034626;28;20376;-63
2022/02/08 11:51:00;;;;;;;16.45;13.35;;;10.50;99.90;;;;;;5032589;28;20317;-63
2022/02/08 11:53:36;;;;;;;17.95;13.38;;;10.50;99.90;;;;;;5033153;28;20230;-62
2022/02/08 12:02:01;;;;;;;15.35;13.25;;;10.60;99.90;;;;;;5028751;28;20229;-62
2022/02/08 12:04:43;;;;;;;18.33;16.27;;;10.60;99.90;;;;;;5035220;28;20405;-63
2022/02/08 12:07:16;;;;;;;16.83;15.13;;;10.70;99.90;;;;;;5036540;28;20222;-64
2022/02/08 12:09:50;;;;;;;15.05;13.15;;;10.80;99.90;;;;;;5035964;28;20225;-64
2022/02/08 12:32:10;;;;;;;23.88;18.75;;;10.90;99.90;;;;;;5026821;28;20257;-63
2022/02/08 12:49:16;;;;;;;13.70;12.13;;;11.00;99.90;;;;;;5035822;28;20237;-63
2022/02/08 12:52:22;;;;;;;18.08;14.88;;;11.10;99.90;;;;;;5034988;28;20233;-63
2022/02/08 12:54:50;;;;;;;20.88;15.73;;;11.20;99.90;;;;;;5035140;28;20225;-63
2022/02/08 12:57:36;;;;;;;18.67;13.32;;;11.10;99.90;;;;;;5035637;28;20286;-63
2022/02/08 13:00:20;;;;;;;17.75;14.60;;;11.20;99.90;;;;;;5055170;28;20965;-63
2022/02/08 13:03:22;;;;;;;16.33;13.32;;;11.20;99.90;;;;;;5054966;28;20756;-64
2022/02/08 13:06:26;;;;;;;14.13;12.77;;;11.20;99.90;;;;;;5054990;28;20252;-63
2022/02/08 14:01:48;;;;;;;11.35;10.25;;;11.40;99.90;;;;;;5074525;28;20692;-64
2022/02/08 14:07:07;;;;;;;11.88;10.18;;;11.40;99.90;;;;;;5032563;28;20220;-63
2022/02/08 14:09:53;;;;;;;11.63;10.40;;;11.40;99.90;;;;;;5032342;28;20221;-63
2022/02/08 14:12:49;;;;;;;19.45;13.15;;;11.50;99.90;;;;;;5031801;28;20222;-63
2022/02/08 14:18:13;;;;;;;12.13;10.82;;;11.50;99.90;;;;;;5031829;28;20692;-63
2022/02/08 14:20:59;;;;;;;15.32;10.95;;;11.50;99.90;;;;;;5033871;28;20584;-64
2022/02/08 14:48:54;;;;;;;14.88;11.55;;;11.70;99.90;;;;;;5031985;28;20222;-63
2022/02/08 15:10:41;;;;;;;13.13;11.90;;;11.50;99.90;;;;;;5032949;28;20563;-63
2022/02/08 15:13:11;;;;;;;10.40;9.50;;;11.50;99.90;;;;;;5052707;28;20244;-63
2022/02/08 15:15:58;;;;;;;10.82;9.57;;;11.60;99.90;;;;;;5044770;28;20234;-63
2022/02/08 15:18:28;;;;;;;12.15;9.00;;;11.60;99.90;;;;;;5050634;28;20291;-63
2022/02/08 15:20:55;;;;;;;10.27;8.48;;;11.70;99.90;;;;;;5049785;28;20719;-63
2022/02/08 15:23:22;;;;;;;11.55;10.35;;;11.70;99.90;;;;;;5034669;28;20232;-63
2022/02/08 15:25:52;;;;;;;10.07;9.07;;;11.70;99.90;;;;;;5038157;28;20221;-63
2022/02/08 15:28:19;;;;;;;10.73;9.65;;;11.70;99.90;;;;;;5047000;28;20742;-63
2022/02/08 15:30:47;;;;;;;13.25;9.65;;;11.60;99.90;;;;;;5043538;28;20227;-63
2022/02/08 15:33:14;;;;;;;10.23;8.68;;;11.60;99.90;;;;;;5040155;28;20220;-63
2022/02/08 15:35:41;;;;;;;11.30;10.15;;;11.70;99.90;;;;;;5039418;28;20228;-63
2022/02/08 15:38:08;;;;;;;8.80;7.90;;;11.70;99.90;;;;;;5041301;28;20226;-62
2022/02/08 15:40:36;;;;;;;11.20;9.07;;;11.70;99.90;;;;;;5040625;28;20582;-63
2022/02/08 15:43:03;;;;;;;11.32;8.30;;;11.70;99.90;;;;;;5051633;28;20220;-63
2022/02/08 15:45:34;;;;;;;13.75;10.75;;;11.70;99.90;;;;;;5039879;28;20220;-64
2022/02/08 15:48:02;;;;;;;31.88;21.27;;;11.70;99.90;;;;;;5053750;28;20604;-63
2022/02/08 15:50:36;;;;;;;8.98;8.07;;;11.70;99.90;;;;;;5045253;28;20298;-64
2022/02/08 15:53:23;;;;;;;14.88;8.70;;;11.70;99.90;;;;;;5040409;28;20972;-63
2022/02/08 15:56:05;;;;;;;9.73;8.73;;;11.70;99.90;;;;;;5044134;28;20224;-64
2022/02/08 16:01:27;;;;;;;12.32;11.23;;;11.70;99.90;;;;;;5044155;28;20229;-63
2022/02/08 16:06:56;;;;;;;11.25;9.02;;;11.80;99.90;;;;;;5035599;28;20220;-66
2022/02/08 16:09:29;;;;;;;11.73;10.20;;;11.80;99.90;;;;;;5044771;28;20237;-66
2022/02/08 16:15:03;;;;;;;8.57;7.78;;;11.80;99.90;;;;;;5047788;28;20580;-62
2022/02/08 16:17:43;;;;;;;11.95;8.80;;;11.80;99.90;;;;;;5068337;28;20247;-63
2022/02/08 16:20:20;;;;;;;9.45;8.48;;;11.80;99.90;;;;;;5047270;28;20225;-63
2022/02/08 16:23:22;;;;;;;11.32;10.18;;;11.80;99.90;;;;;;5051087;28;20213;-64
2022/02/08 16:25:59;;;;;;;10.23;9.18;;;11.90;99.90;;;;;;5048002;28;20224;-66
2022/02/08 16:28:42;;;;;;;10.07;9.07;;;11.80;99.90;;;;;;5044067;28;20282;-64
2022/02/08 16:53:22;;;;;;;10.57;9.68;;;12.10;99.90;;;;;;5043226;28;20679;-64
2022/02/08 16:56:04;;;;;;;12.98;10.68;;;12.20;99.90;;;;;;5045622;28;20214;-63
2022/02/08 16:58:41;;;;;;;11.88;10.68;;;12.20;99.90;;;;;;5067958;28;20603;-64
2022/02/08 17:01:16;;;;;;;15.60;12.63;;;12.20;99.90;;;;;;5064548;28;21311;-64
2022/02/08 17:03:46;;;;;;;10.85;9.82;;;12.20;99.90;;;;;;5059248;28;20217;-63
2022/02/08 17:06:16;;;;;;;10.50;9.48;;;12.30;99.90;;;;;;5048839;28;20557;-63
2022/02/08 17:08:45;;;;;;;10.13;9.07;;;12.30;99.90;;;;;;5048175;28;20228;-64
2022/02/08 17:11:19;;;;;;;10.23;8.93;;;12.20;99.90;;;;;;5045079;28;21099;-63
2022/02/08 17:16:48;;;;;;;11.43;10.23;;;12.20;99.90;;;;;;5039817;28;20678;-64
2022/02/08 17:46:53;;;;;;;30.38;22.42;;;12.20;99.90;;;;;;5047884;28;20220;-63
2022/02/08 17:49:20;;;;;;;11.55;10.55;;;12.20;99.90;;;;;;5039439;28;20504;-63
2022/02/08 17:51:47;;;;;;;11.20;10.20;;;12.20;99.90;;;;;;5040956;28;20225;-64
2022/02/08 17:54:15;;;;;;;9.00;8.05;;;12.20;99.90;;;;;;5044421;28;20232;-64
2022/02/08 17:56:44;;;;;;;11.13;9.75;;;12.30;99.90;;;;;;5049113;28;20225;-64
2022/02/08 17:59:11;;;;;;;15.32;13.55;;;12.30;99.90;;;;;;5050816;28;20213;-63
2022/02/08 18:01:38;;;;;;;10.63;9.48;;;12.20;99.90;;;;;;5049823;28;20229;-61
2022/02/08 18:04:05;;;;;;;12.43;10.23;;;12.20;99.90;;;;;;5047401;28;20221;-64
2022/02/08 18:06:32;;;;;;;12.35;11.15;;;12.20;99.90;;;;;;5046178;28;20605;-61
2022/02/08 18:09:01;;;;;;;16.77;14.13;;;12.30;99.90;;;;;;5046814;28;20483;-66
2022/02/08 18:11:30;;;;;;;23.10;18.90;;;12.30;99.90;;;;;;5044894;28;20406;-62
2022/02/08 18:13:58;;;;;;;14.48;12.98;;;12.30;99.90;;;;;;5048247;28;20226;-66